createdAt,value
2019-06-27T00:00:28.870Z,45.66
2019-06-27T00:02:56.809Z,45.72
2019-06-27T00:05:24.959Z,45.67
2019-06-27T00:07:52.945Z,45.62
2019-06-27T00:10:20.912Z,45.59
2019-06-27T00:12:48.750Z,45.64
2019-06-27T00:15:16.712Z,45.77
2019-06-27T00:17:44.588Z,45.73
2019-06-27T00:20:12.372Z,45.63
2019-06-27T00:22:41.295Z,45.63
2019-06-27T00:25:09.560Z,45.62
2019-06-27T00:27:37.646Z,45.63
2019-06-27T00:30:05.571Z,45.54
2019-06-27T00:32:33.527Z,45.60
2019-06-27T00:35:01.556Z,45.60
2019-06-27T00:37:29.670Z,45.60
2019-06-27T00:39:57.695Z,45.60
2019-06-27T00:42:25.735Z,45.53
2019-06-27T00:44:53.573Z,45.54
2019-06-27T00:47:21.676Z,45.55
2019-06-27T00:49:49.587Z,45.55
2019-06-27T00:52:17.503Z,45.55
2019-06-27T00:54:45.306Z,45.36
2019-06-27T00:57:14.676Z,45.48
2019-06-27T00:59:42.900Z,45.46
2019-06-27T01:02:11.118Z,45.49
2019-06-27T01:04:38.986Z,45.55
2019-06-27T01:07:06.996Z,45.51
2019-06-27T01:09:35.188Z,45.51
2019-06-27T01:12:03.068Z,45.51
2019-06-27T01:14:30.984Z,45.60
2019-06-27T01:16:58.914Z,45.59
2019-06-27T01:19:26.858Z,45.55
2019-06-27T01:21:54.742Z,45.59
2019-06-27T01:24:22.701Z,45.57
2019-06-27T01:26:50.597Z,45.58
2019-06-27T01:29:18.372Z,45.56
2019-06-27T01:31:46.285Z,45.69
2019-06-27T01:34:14.312Z,45.55
2019-06-27T01:36:42.264Z,45.59
2019-06-27T01:39:10.131Z,45.58
2019-06-27T01:41:37.930Z,45.53
2019-06-27T01:44:08.700Z,45.55
2019-06-27T01:46:36.726Z,45.55
2019-06-27T01:49:04.732Z,45.64
2019-06-27T01:51:32.657Z,45.62
2019-06-27T01:54:00.676Z,45.64
2019-06-27T01:56:28.513Z,45.62
2019-06-27T01:58:56.378Z,45.61
2019-06-27T02:01:24.350Z,45.65
2019-06-27T02:03:52.552Z,45.64
2019-06-27T02:06:20.504Z,45.61
2019-06-27T02:08:48.417Z,45.68
2019-06-27T02:11:16.222Z,45.65
2019-06-27T02:13:44.411Z,45.72
2019-06-27T02:16:12.409Z,45.60
2019-06-27T02:18:40.396Z,45.68
2019-06-27T02:21:08.242Z,45.61
2019-06-27T02:23:36.140Z,45.57
2019-06-27T02:26:03.978Z,45.58
2019-06-27T02:28:31.898Z,45.60
2019-06-27T02:31:00.031Z,45.59
2019-06-27T02:33:27.995Z,45.73
2019-06-27T02:35:55.907Z,45.66
2019-06-27T02:38:23.745Z,45.63
2019-06-27T02:40:51.766Z,45.70
2019-06-27T02:43:19.746Z,45.73
2019-06-27T02:45:47.638Z,45.71
2019-06-27T02:48:15.712Z,45.71
2019-06-27T02:50:43.852Z,45.68
2019-06-27T02:53:11.753Z,45.70
2019-06-27T02:55:39.536Z,45.67
2019-06-27T02:58:27.748Z,45.71
2019-06-27T03:00:37.256Z,45.65
2019-06-27T03:03:05.323Z,45.72
2019-06-27T03:05:33.424Z,45.72
2019-06-27T03:08:01.427Z,45.72
2019-06-27T03:10:29.455Z,45.75
2019-06-27T03:12:57.282Z,45.68
2019-06-27T03:15:25.243Z,45.67
2019-06-27T03:17:53.178Z,45.63
2019-06-27T03:20:21.078Z,45.63
2019-06-27T03:22:48.998Z,45.59
2019-06-27T03:25:16.921Z,45.63
2019-06-27T03:27:44.867Z,45.61
2019-06-27T03:30:12.822Z,45.68
2019-06-27T03:32:40.832Z,45.65
2019-06-27T03:35:08.734Z,45.64
2019-06-27T03:37:36.699Z,45.61
2019-06-27T03:40:05.225Z,45.60
2019-06-27T03:42:33.200Z,45.62
2019-06-27T03:45:01.501Z,45.62
2019-06-27T03:47:29.446Z,45.63
2019-06-27T03:49:57.318Z,45.67
2019-06-27T03:52:25.117Z,45.67
2019-06-27T03:54:53.150Z,45.60
2019-06-27T03:57:21.353Z,45.62
2019-06-27T03:59:49.333Z,45.64
2019-06-27T04:02:17.347Z,45.61
2019-06-27T04:04:45.328Z,45.57
2019-06-27T04:07:13.254Z,45.57
2019-06-27T04:09:41.137Z,45.54
2019-06-27T04:12:09.616Z,45.57
2019-06-27T04:14:37.790Z,45.57
2019-06-27T04:17:05.923Z,45.53
2019-06-27T04:19:33.983Z,45.58
2019-06-27T04:22:02.038Z,45.54
2019-06-27T04:24:29.808Z,45.57
2019-06-27T04:26:58.251Z,45.58
2019-06-27T04:29:33.290Z,45.58
2019-06-27T04:31:55.944Z,45.59
2019-06-27T04:34:23.847Z,45.61
2019-06-27T04:36:51.985Z,45.54
2019-06-27T04:39:20.341Z,45.56
2019-06-27T04:41:48.440Z,45.61
2019-06-27T04:44:16.592Z,45.64
2019-06-27T04:46:44.553Z,45.56
2019-06-27T04:49:13.760Z,45.61
2019-06-27T04:51:42.007Z,45.69
2019-06-27T04:54:10.123Z,45.63
2019-06-27T04:56:38.105Z,45.65
2019-06-27T04:59:06.144Z,45.62
2019-06-27T05:01:34.135Z,45.62
2019-06-27T05:04:01.907Z,45.66
2019-06-27T05:06:30.236Z,45.64
2019-06-27T05:08:58.133Z,45.62
2019-06-27T05:11:26.040Z,45.68
2019-06-27T05:13:54.028Z,45.57
2019-06-27T05:16:22.018Z,45.64
2019-06-27T05:18:49.879Z,45.61
2019-06-27T05:21:17.791Z,45.71
2019-06-27T05:23:45.648Z,45.73
2019-06-27T05:26:13.723Z,45.77
2019-06-27T05:28:41.750Z,45.69
2019-06-27T05:31:09.716Z,45.82
2019-06-27T05:33:37.679Z,45.73
2019-06-27T05:36:05.866Z,45.72
2019-06-27T05:38:33.958Z,45.75
2019-06-27T05:41:01.880Z,45.71
2019-06-27T05:43:29.648Z,45.80
2019-06-27T05:45:57.430Z,45.79
2019-06-27T05:48:25.546Z,45.63
2019-06-27T05:50:53.328Z,45.71
2019-06-27T05:53:21.200Z,45.44
2019-06-27T05:55:49.118Z,45.44
2019-06-27T05:58:17.132Z,45.55
2019-06-27T06:00:45.065Z,45.31
2019-06-27T06:03:13.170Z,45.40
2019-06-27T06:05:40.945Z,45.41
2019-06-27T06:08:08.865Z,45.43
2019-06-27T06:10:36.913Z,45.36
2019-06-27T06:13:05.296Z,45.43
2019-06-27T06:15:33.356Z,45.44
2019-06-27T06:18:01.276Z,45.29
2019-06-27T06:20:29.757Z,45.27
2019-06-27T06:22:57.853Z,45.31
2019-06-27T06:25:25.615Z,45.26
2019-06-27T06:27:53.658Z,45.20
2019-06-27T06:30:21.575Z,45.24
2019-06-27T06:32:49.614Z,45.23
2019-06-27T06:35:17.575Z,45.15
2019-06-27T06:37:45.644Z,45.20
2019-06-27T06:40:13.843Z,45.29
2019-06-27T06:42:41.862Z,45.16
2019-06-27T06:45:09.793Z,45.31
2019-06-27T06:47:37.592Z,45.24
2019-06-27T06:50:05.542Z,45.27
2019-06-27T06:52:33.442Z,45.24
2019-06-27T06:55:01.793Z,45.31
2019-06-27T06:57:30.011Z,45.35
2019-06-27T06:59:58.088Z,45.40
2019-06-27T07:02:26.077Z,45.46
2019-06-27T07:04:54.005Z,45.39
2019-06-27T07:07:21.906Z,45.42
2019-06-27T07:09:49.897Z,45.39
2019-06-27T07:12:17.805Z,45.31
2019-06-27T07:14:45.725Z,45.47
2019-06-27T07:17:13.755Z,45.53
2019-06-27T07:19:41.962Z,45.34
2019-06-27T07:22:09.976Z,45.33
2019-06-27T07:24:37.865Z,45.39
2019-06-27T07:27:05.766Z,45.25
2019-06-27T07:29:33.660Z,45.16
2019-06-27T07:32:01.486Z,45.09
2019-06-27T07:34:29.536Z,45.18
2019-06-27T07:36:57.365Z,45.27
2019-06-27T07:39:25.394Z,45.09
2019-06-27T07:41:53.328Z,45.12
2019-06-27T07:44:21.239Z,45.23
2019-06-27T07:46:49.097Z,45.10
2019-06-27T07:49:17.556Z,45.07
2019-06-27T07:51:45.689Z,45.06
2019-06-27T07:54:13.485Z,44.98
2019-06-27T07:56:41.287Z,44.89
2019-06-27T07:59:09.446Z,44.86
2019-06-27T08:01:37.271Z,44.84
2019-06-27T08:04:05.279Z,44.85
2019-06-27T08:06:33.228Z,44.68
2019-06-27T08:09:01.106Z,44.89
2019-06-27T08:11:29.274Z,44.80
2019-06-27T08:13:57.231Z,45.00
2019-06-27T08:16:25.279Z,44.78
2019-06-27T08:18:53.334Z,45.07
2019-06-27T08:21:21.376Z,44.50
2019-06-27T08:23:49.280Z,44.82
2019-06-27T08:26:17.289Z,45.10
2019-06-27T08:28:45.290Z,45.04
2019-06-27T08:31:13.193Z,45.25
2019-06-27T08:33:41.305Z,45.11
2019-06-27T08:36:09.233Z,45.12
2019-06-27T08:38:37.178Z,45.00
2019-06-27T08:41:04.954Z,44.86
2019-06-27T08:43:32.868Z,45.04
2019-06-27T08:46:00.768Z,44.78
2019-06-27T08:48:28.757Z,44.75
2019-06-27T08:50:56.932Z,44.97
2019-06-27T08:53:24.942Z,45.05
2019-06-27T08:55:53.192Z,44.99
2019-06-27T08:58:21.192Z,44.78
2019-06-27T09:00:49.009Z,45.00
2019-06-27T09:03:17.394Z,44.97
2019-06-27T09:05:45.328Z,45.18
2019-06-27T09:08:13.371Z,45.19
2019-06-27T09:10:41.402Z,45.24
2019-06-27T09:13:09.451Z,45.22
2019-06-27T09:15:37.421Z,45.21
2019-06-27T09:18:05.604Z,45.20
2019-06-27T09:20:33.493Z,45.18
2019-06-27T09:23:01.508Z,45.15
2019-06-27T09:25:29.608Z,45.17
2019-06-27T09:27:57.618Z,45.24
2019-06-27T09:30:25.558Z,45.27
2019-06-27T09:32:53.435Z,45.28
2019-06-27T09:35:21.352Z,45.18
2019-06-27T09:37:49.383Z,45.02
2019-06-27T09:40:17.275Z,45.09
2019-06-27T09:42:45.108Z,45.15
2019-06-27T09:45:13.052Z,45.16
2019-06-27T09:47:40.815Z,45.21
2019-06-27T09:50:08.731Z,45.27
2019-06-27T09:52:36.661Z,45.24
2019-06-27T09:55:04.599Z,45.24
2019-06-27T09:57:32.832Z,45.38
2019-06-27T10:00:00.598Z,45.33
2019-06-27T10:02:40.979Z,45.24
2019-06-27T10:04:58.171Z,45.20
2019-06-27T10:07:26.174Z,45.21
2019-06-27T10:09:54.172Z,45.25
2019-06-27T10:12:21.952Z,45.24
2019-06-27T10:14:50.131Z,45.32
2019-06-27T10:17:18.098Z,45.27
2019-06-27T10:19:46.078Z,45.26
2019-06-27T10:22:13.846Z,45.28
2019-06-27T10:24:41.732Z,45.24
2019-06-27T10:27:09.665Z,45.26
2019-06-27T10:29:37.470Z,45.26
2019-06-27T10:32:05.483Z,45.30
2019-06-27T10:34:33.771Z,45.20
2019-06-27T10:37:02.083Z,45.25
2019-06-27T10:39:29.919Z,45.23
2019-06-27T10:41:58.034Z,45.24
2019-06-27T10:44:26.349Z,45.26
2019-06-27T10:46:54.236Z,45.17
2019-06-27T10:49:22.216Z,45.19
2019-06-27T10:51:50.109Z,45.21
2019-06-27T10:54:18.120Z,45.23
2019-06-27T10:56:46.004Z,45.15
2019-06-27T10:59:14.025Z,45.22
2019-06-27T11:02:01.253Z,45.05
2019-06-27T11:04:29.403Z,45.12
2019-06-27T11:06:57.182Z,45.06
2019-06-27T11:09:24.979Z,45.11
2019-06-27T11:11:53.399Z,45.04
2019-06-27T11:14:21.288Z,44.90
2019-06-27T11:16:49.091Z,44.85
2019-06-27T11:19:17.354Z,45.00
2019-06-27T11:21:45.279Z,44.97
2019-06-27T11:24:13.552Z,44.95
2019-06-27T11:26:41.646Z,44.98
2019-06-27T11:29:28.595Z,44.95
2019-06-27T11:31:56.731Z,44.97
2019-06-27T11:34:24.724Z,45.00
2019-06-27T11:36:53.014Z,45.04
2019-06-27T11:39:23.222Z,44.91
2019-06-27T11:44:37.909Z,44.96
2019-06-27T11:47:05.730Z,44.96
2019-06-27T11:49:33.569Z,44.93
2019-06-27T11:52:01.556Z,44.93
2019-06-27T11:57:02.843Z,44.90
2019-06-27T11:59:30.856Z,44.91
2019-06-27T12:01:58.632Z,44.96
2019-06-27T12:04:45.672Z,44.91
2019-06-27T12:07:13.666Z,44.87
2019-06-27T12:09:41.615Z,44.89
2019-06-27T12:12:09.489Z,44.72
2019-06-27T12:14:37.452Z,44.76
2019-06-27T12:17:05.356Z,44.77
2019-06-27T12:22:06.701Z,44.74
2019-06-27T12:24:34.655Z,44.61
2019-06-27T12:27:02.522Z,44.64
2019-06-27T12:29:49.579Z,44.69
2019-06-27T12:35:04.656Z,44.54
2019-06-27T12:37:51.575Z,44.55
2019-06-27T12:40:19.495Z,44.47
2019-06-27T12:42:47.487Z,44.53
2019-06-27T12:45:15.466Z,44.51
2019-06-27T12:50:17.240Z,44.23
2019-06-27T12:55:19.229Z,44.49
2019-06-27T12:57:47.029Z,44.29
2019-06-27T13:00:14.818Z,44.25
2019-06-27T13:02:42.699Z,44.34
2019-06-27T13:05:10.684Z,44.45
2019-06-27T13:07:38.675Z,44.27
2019-06-27T13:10:07.323Z,44.42
2019-06-27T13:12:35.280Z,44.35
2019-06-27T13:15:03.564Z,44.23
2019-06-27T13:17:31.397Z,44.33
2019-06-27T13:19:59.266Z,44.29
2019-06-27T13:22:27.576Z,44.36
2019-06-27T13:24:55.488Z,44.28
2019-06-27T13:27:23.399Z,44.39
2019-06-27T13:29:51.355Z,44.29
2019-06-27T13:32:19.251Z,44.37
2019-06-27T13:34:47.747Z,44.29
2019-06-27T13:37:16.086Z,44.28
2019-06-27T13:39:44.069Z,44.25
2019-06-27T13:42:11.899Z,44.28
2019-06-27T13:44:39.772Z,44.28
2019-06-27T13:47:26.710Z,44.19
2019-06-27T13:49:54.745Z,44.26
2019-06-27T13:52:41.840Z,44.26
2019-06-27T13:55:10.184Z,44.23
2019-06-27T13:57:38.124Z,44.17
2019-06-27T14:00:06.331Z,44.19
2019-06-27T14:02:34.109Z,44.16
2019-06-27T14:05:02.167Z,44.13
2019-06-27T14:07:30.055Z,44.18
2019-06-27T14:12:45.048Z,44.11
2019-06-27T14:17:59.857Z,43.76
2019-06-27T14:20:28.023Z,44.05
2019-06-27T14:22:55.968Z,44.01
2019-06-27T14:25:24.191Z,44.00
2019-06-27T14:28:11.091Z,43.96
2019-06-27T14:30:58.222Z,44.05
2019-06-27T14:33:45.200Z,44.01
2019-06-27T14:36:13.244Z,44.07
2019-06-27T14:39:00.341Z,43.99
2019-06-27T14:41:28.354Z,43.97
2019-06-27T14:43:56.414Z,44.06
2019-06-27T14:46:24.343Z,43.98
2019-06-27T14:48:52.240Z,43.90
2019-06-27T14:51:20.478Z,43.90
2019-06-27T14:53:48.365Z,43.96
2019-06-27T14:56:16.243Z,43.92
2019-06-27T14:58:44.479Z,43.89
2019-06-27T15:01:31.439Z,43.79
2019-06-27T15:03:59.639Z,43.86
2019-06-27T15:06:27.651Z,43.73
2019-06-27T15:08:55.535Z,43.61
2019-06-27T15:11:23.347Z,43.72
2019-06-27T15:13:51.243Z,43.71
2019-06-27T15:16:38.061Z,43.73
2019-06-27T15:19:25.033Z,43.80
2019-06-27T15:21:52.801Z,43.78
2019-06-27T15:26:54.180Z,43.65
2019-06-27T15:31:56.008Z,43.42
2019-06-27T15:34:43.014Z,43.52
2019-06-27T15:39:44.821Z,43.54
2019-06-27T15:42:12.909Z,43.52
2019-06-27T15:47:14.349Z,43.50
2019-06-27T15:49:42.417Z,43.43
2019-06-27T15:52:10.382Z,40.16
2019-06-27T15:54:57.535Z,42.75
2019-06-27T15:57:25.310Z,43.00
2019-06-27T15:59:53.146Z,43.38
2019-06-27T16:02:21.121Z,42.99
2019-06-27T16:04:49.395Z,43.17
2019-06-27T16:07:36.468Z,43.12
2019-06-27T16:10:04.367Z,43.10
2019-06-27T16:12:32.320Z,42.60
2019-06-27T16:15:00.200Z,43.08
2019-06-27T16:17:47.163Z,42.84
2019-06-27T16:20:15.038Z,42.40
2019-06-27T16:22:43.030Z,42.56
2019-06-27T16:25:11.348Z,42.39
2019-06-27T16:27:39.415Z,42.31
2019-06-27T16:30:07.493Z,42.01
2019-06-27T16:35:22.333Z,41.98
2019-06-27T16:37:50.236Z,41.10
2019-06-27T16:40:18.168Z,41.71
2019-06-27T16:43:05.121Z,41.43
2019-06-27T16:45:52.200Z,41.20
2019-06-27T16:48:20.023Z,40.87
2019-06-27T16:50:47.966Z,40.47
2019-06-27T16:53:16.020Z,40.45
2019-06-27T16:55:43.858Z,41.04
2019-06-27T16:58:11.802Z,40.59
2019-06-27T17:00:39.572Z,40.86
2019-06-27T17:03:07.533Z,40.40
2019-06-27T17:05:35.440Z,41.13
2019-06-27T17:08:03.507Z,40.15
2019-06-27T17:10:31.522Z,40.40
2019-06-27T17:12:59.447Z,40.57
2019-06-27T17:15:27.401Z,40.63
2019-06-27T17:17:55.486Z,41.37
2019-06-27T17:20:23.286Z,41.33
2019-06-27T17:22:51.519Z,41.33
2019-06-27T17:25:19.368Z,41.53
2019-06-27T17:27:47.254Z,41.82
2019-06-27T17:30:16.468Z,41.66
2019-06-27T17:32:44.502Z,41.80
2019-06-27T17:35:12.473Z,41.62
2019-06-27T17:37:40.619Z,41.94
2019-06-27T17:40:10.061Z,41.88
2019-06-27T17:42:38.323Z,41.90
2019-06-27T17:45:07.333Z,42.05
2019-06-27T17:47:36.342Z,41.91
2019-06-27T17:50:04.399Z,41.79
2019-06-27T17:52:32.334Z,41.57
2019-06-27T17:55:00.198Z,41.84
2019-06-27T17:57:28.096Z,42.00
2019-06-27T17:59:55.876Z,41.93
2019-06-27T18:02:23.772Z,41.33
2019-06-27T18:04:51.757Z,41.94
2019-06-27T18:07:19.709Z,41.87
2019-06-27T18:09:47.672Z,40.60
2019-06-27T18:12:15.551Z,41.82
2019-06-27T18:14:43.717Z,41.81
2019-06-27T18:17:11.801Z,41.92
2019-06-27T18:19:39.779Z,41.79
2019-06-27T18:22:07.730Z,42.01
2019-06-27T18:24:35.944Z,41.96
2019-06-27T18:27:03.844Z,41.89
2019-06-27T18:29:31.973Z,42.02
2019-06-27T18:31:59.881Z,41.97
2019-06-27T18:34:28.024Z,42.02
2019-06-27T18:36:55.988Z,42.03
2019-06-27T18:39:24.023Z,41.89
2019-06-27T18:41:51.954Z,41.93
2019-06-27T18:44:20.261Z,42.08
2019-06-27T18:46:48.038Z,41.86
2019-06-27T18:49:15.864Z,41.94
2019-06-27T18:51:43.827Z,42.04
2019-06-27T18:54:11.700Z,41.98
2019-06-27T18:56:39.618Z,42.08
2019-06-27T18:59:07.694Z,41.44
2019-06-27T19:01:35.577Z,41.99
2019-06-27T19:04:03.572Z,42.02
2019-06-27T19:06:31.492Z,41.84
2019-06-27T19:08:59.709Z,42.02
2019-06-27T19:11:27.726Z,41.93
2019-06-27T19:13:55.769Z,42.05
2019-06-27T19:16:23.713Z,42.12
2019-06-27T19:18:55.632Z,42.12
2019-06-27T19:21:37.811Z,42.13
2019-06-27T19:24:23.282Z,42.16
2019-06-27T19:26:52.114Z,42.22
2019-06-27T19:29:20.114Z,42.23
2019-06-27T19:31:48.021Z,42.14
2019-06-27T19:34:15.824Z,42.13
2019-06-27T19:36:43.748Z,42.15
2019-06-27T19:39:11.903Z,42.16
2019-06-27T19:41:39.797Z,42.13
2019-06-27T19:44:08.032Z,42.01
2019-06-27T19:46:35.896Z,42.15
2019-06-27T19:49:03.774Z,42.20
2019-06-27T19:51:31.874Z,42.17
2019-06-27T19:53:59.638Z,42.12
2019-06-27T19:56:27.411Z,42.09
2019-06-27T19:58:55.174Z,42.09
2019-06-27T20:01:23.388Z,42.04
2019-06-27T20:03:51.274Z,42.21
2019-06-27T20:06:19.166Z,41.99
2019-06-27T20:08:47.062Z,42.05
2019-06-27T20:11:15.036Z,42.14
2019-06-27T20:13:43.088Z,41.96
2019-06-27T20:16:11.028Z,42.06
2019-06-27T20:18:39.076Z,41.93
2019-06-27T20:21:06.998Z,42.13
2019-06-27T20:23:34.994Z,42.02
2019-06-27T20:26:03.988Z,41.94
2019-06-27T20:28:31.930Z,42.15
2019-06-27T20:30:59.992Z,42.24
2019-06-27T20:33:28.017Z,42.17
2019-06-27T20:35:55.816Z,42.04
2019-06-27T20:38:34.448Z,42.27
2019-06-27T20:40:53.555Z,42.14
2019-06-27T20:43:21.715Z,42.14
2019-06-27T20:45:49.690Z,42.07
2019-06-27T20:48:18.371Z,42.38
2019-06-27T20:50:46.266Z,42.31
2019-06-27T20:53:14.202Z,42.14
2019-06-27T20:55:42.017Z,42.05
2019-06-27T20:58:10.061Z,42.10
2019-06-27T21:00:37.977Z,41.95
2019-06-27T21:03:05.837Z,41.94
2019-06-27T21:05:33.961Z,42.22
2019-06-27T21:08:01.990Z,42.16
2019-06-27T21:10:29.892Z,42.17
2019-06-27T21:12:57.842Z,42.23
2019-06-27T21:15:25.662Z,42.21
2019-06-27T21:17:53.570Z,42.20
2019-06-27T21:20:21.414Z,42.31
2019-06-27T21:22:49.535Z,42.17
2019-06-27T21:25:17.814Z,42.34
2019-06-27T21:27:45.622Z,42.06
2019-06-27T21:30:13.823Z,42.16
2019-06-27T21:32:41.768Z,42.07
2019-06-27T21:35:09.714Z,41.81
2019-06-27T21:37:37.740Z,42.05
2019-06-27T21:40:05.674Z,42.06
2019-06-27T21:42:33.595Z,42.14
2019-06-27T21:45:01.594Z,41.94
2019-06-27T21:47:30.261Z,42.01
2019-06-27T21:49:58.474Z,41.81
2019-06-27T21:52:26.547Z,42.09
2019-06-27T21:54:54.934Z,41.67
2019-06-27T21:57:22.990Z,41.77
2019-06-27T21:59:51.038Z,42.09
2019-06-27T22:02:18.802Z,41.77
2019-06-27T22:04:46.731Z,41.55
2019-06-27T22:07:14.708Z,41.79
2019-06-27T22:09:42.680Z,41.86
2019-06-27T22:12:10.677Z,41.67
2019-06-27T22:14:39.043Z,41.90
2019-06-27T22:17:06.822Z,41.66
2019-06-27T22:19:34.908Z,41.57
2019-06-27T22:22:02.859Z,41.78
2019-06-27T22:24:30.889Z,41.82
2019-06-27T22:26:58.747Z,41.86
2019-06-27T22:29:26.896Z,41.82
2019-06-27T22:31:54.946Z,41.93
2019-06-27T22:34:22.880Z,41.45
2019-06-27T22:36:51.007Z,41.63
2019-06-27T22:39:40.779Z,41.88
2019-06-27T22:42:24.179Z,41.82
2019-06-27T22:45:10.201Z,41.67
2019-06-27T22:47:55.899Z,41.77
2019-06-27T22:50:35.450Z,41.53
2019-06-27T22:53:08.804Z,41.74
2019-06-27T22:55:37.060Z,41.61
2019-06-27T22:58:05.411Z,41.65
2019-06-27T23:00:33.461Z,41.35
2019-06-27T23:03:01.622Z,41.37
2019-06-27T23:05:29.547Z,41.26
2019-06-27T23:07:57.417Z,41.40
2019-06-27T23:10:25.190Z,41.62
2019-06-27T23:12:53.056Z,41.44
2019-06-27T23:15:20.852Z,40.54
2019-06-27T23:17:48.846Z,41.77
2019-06-27T23:20:16.648Z,41.42
2019-06-27T23:22:44.463Z,39.91
2019-06-27T23:25:12.449Z,41.31
2019-06-27T23:27:41.262Z,41.37
2019-06-27T23:30:09.378Z,41.08
2019-06-27T23:32:37.315Z,40.45
2019-06-27T23:35:05.209Z,40.29
2019-06-27T23:37:33.468Z,41.16
2019-06-27T23:40:13.581Z,40.89
2019-06-27T23:42:33.266Z,39.92
2019-06-27T23:45:01.278Z,40.07
2019-06-27T23:47:29.610Z,39.57
2019-06-27T23:49:57.588Z,39.62
2019-06-27T23:52:25.595Z,40.49
2019-06-27T23:54:53.494Z,39.46
2019-06-27T23:57:21.364Z,37.81
2019-06-27T23:59:49.229Z,39.49
